sensor_id;sensor_type;location;lat;lon;timestamp;temperature;humidity
36446;DHT22;22472;50.848;-1.216;2022-08-07T00:00:50;16.10;99.90
36446;DHT22;22472;50.848;-1.216;2022-08-07T00:03:17;16.10;99.90
36446;DHT22;22472;50.848;-1.216;2022-08-07T00:05:45;16.00;99.90
36446;DHT22;22472;50.848;-1.216;2022-08-07T00:08:12;16.00;99.90
36446;DHT22;22472;50.848;-1.216;2022-08-07T00:10:39;16.00;99.90
36446;DHT22;22472;50.848;-1.216;2022-08-07T00:13:07;16.00;99.90
36446;DHT22;22472;50.848;-1.216;2022-08-07T00:15:34;16.00;99.90
36446;DHT22;22472;50.848;-1.216;2022-08-07T00:18:01;16.00;99.90
36446;DHT22;22472;50.848;-1.216;2022-08-07T00:20:29;15.90;99.90
36446;DHT22;22472;50.848;-1.216;2022-08-07T00:22:57;15.90;99.90
36446;DHT22;22472;50.848;-1.216;2022-08-07T00:25:24;15.80;99.90
36446;DHT22;22472;50.848;-1.216;2022-08-07T00:27:51;15.80;99.90
36446;DHT22;22472;50.848;-1.216;2022-08-07T00:30:18;15.80;99.90
36446;DHT22;22472;50.848;-1.216;2022-08-07T00:32:46;15.80;99.90
36446;DHT22;22472;50.848;-1.216;2022-08-07T00:35:14;15.80;99.90
36446;DHT22;22472;50.848;-1.216;2022-08-07T00:37:41;15.80;99.90
36446;DHT22;22472;50.848;-1.216;2022-08-07T00:40:10;15.80;99.90
36446;DHT22;22472;50.848;-1.216;2022-08-07T00:42:38;15.80;99.90
36446;DHT22;22472;50.848;-1.216;2022-08-07T00:45:07;15.80;99.90
36446;DHT22;22472;50.848;-1.216;2022-08-07T00:47:35;15.70;99.90
36446;DHT22;22472;50.848;-1.216;2022-08-07T00:50:02;15.70;99.90
36446;DHT22;22472;50.848;-1.216;2022-08-07T00:52:29;15.60;99.90
36446;DHT22;22472;50.848;-1.216;2022-08-07T00:54:56;15.60;99.90
36446;DHT22;22472;50.848;-1.216;2022-08-07T00:57:25;15.50;99.90
36446;DHT22;22472;50.848;-1.216;2022-08-07T00:59:52;15.50;99.90
36446;DHT22;22472;50.848;-1.216;2022-08-07T01:02:20;15.40;99.90
36446;DHT22;22472;50.848;-1.216;2022-08-07T01:04:48;15.30;99.90
36446;DHT22;22472;50.848;-1.216;2022-08-07T01:07:15;15.30;99.90
36446;DHT22;22472;50.848;-1.216;2022-08-07T01:09:42;15.20;99.90
36446;DHT22;22472;50.848;-1.216;2022-08-07T01:12:09;15.10;99.90
36446;DHT22;22472;50.848;-1.216;2022-08-07T01:14:38;15.10;99.90
36446;DHT22;22472;50.848;-1.216;2022-08-07T01:17:04;15.10;99.90
36446;DHT22;22472;50.848;-1.216;2022-08-07T01:19:33;15.00;99.90
36446;DHT22;22472;50.848;-1.216;2022-08-07T01:22:02;15.00;99.90
36446;DHT22;22472;50.848;-1.216;2022-08-07T01:24:31;15.00;99.90
36446;DHT22;22472;50.848;-1.216;2022-08-07T01:26:59;15.00;99.90
36446;DHT22;22472;50.848;-1.216;2022-08-07T01:29:27;14.90;99.90
36446;DHT22;22472;50.848;-1.216;2022-08-07T01:31:55;14.90;99.90
36446;DHT22;22472;50.848;-1.216;2022-08-07T01:34:22;14.90;99.90
36446;DHT22;22472;50.848;-1.216;2022-08-07T01:36:49;14.90;99.90
36446;DHT22;22472;50.848;-1.216;2022-08-07T01:39:17;14.90;99.90
36446;DHT22;22472;50.848;-1.216;2022-08-07T01:41:45;14.90;99.90
36446;DHT22;22472;50.848;-1.216;2022-08-07T01:44:12;14.80;99.90
36446;DHT22;22472;50.848;-1.216;2022-08-07T01:46:40;14.80;99.90
36446;DHT22;22472;50.848;-1.216;2022-08-07T01:49:08;14.80;99.90
36446;DHT22;22472;50.848;-1.216;2022-08-07T01:51:36;14.70;99.90
36446;DHT22;22472;50.848;-1.216;2022-08-07T01:54:07;14.70;99.90
36446;DHT22;22472;50.848;-1.216;2022-08-07T01:56:42;14.60;99.90
36446;DHT22;22472;50.848;-1.216;2022-08-07T01:59:17;14.60;99.90
36446;DHT22;22472;50.848;-1.216;2022-08-07T02:01:48;14.60;99.90
36446;DHT22;22472;50.848;-1.216;2022-08-07T02:04:23;14.50;99.90
36446;DHT22;22472;50.848;-1.216;2022-08-07T02:06:52;14.50;99.90
36446;DHT22;22472;50.848;-1.216;2022-08-07T02:09:21;14.40;99.90
36446;DHT22;22472;50.848;-1.216;2022-08-07T02:11:51;14.40;99.90
36446;DHT22;22472;50.848;-1.216;2022-08-07T02:14:21;14.40;99.90
36446;DHT22;22472;50.848;-1.216;2022-08-07T02:16:51;14.40;99.90
36446;DHT22;22472;50.848;-1.216;2022-08-07T02:19:21;14.40;99.90
36446;DHT22;22472;50.848;-1.216;2022-08-07T02:21:51;14.40;99.90
36446;DHT22;22472;50.848;-1.216;2022-08-07T02:24:19;14.40;99.90
36446;DHT22;22472;50.848;-1.216;2022-08-07T02:26:46;14.40;99.90
36446;DHT22;22472;50.848;-1.216;2022-08-07T02:29:16;14.30;99.90
36446;DHT22;22472;50.848;-1.216;2022-08-07T02:31:44;14.30;99.90
36446;DHT22;22472;50.848;-1.216;2022-08-07T02:34:13;14.30;99.90
36446;DHT22;22472;50.848;-1.216;2022-08-07T02:36:42;14.20;99.90
36446;DHT22;22472;50.848;-1.216;2022-08-07T02:39:13;14.10;99.90
36446;DHT22;22472;50.848;-1.216;2022-08-07T02:41:41;14.10;99.90
36446;DHT22;22472;50.848;-1.216;2022-08-07T02:44:09;14.10;99.90
36446;DHT22;22472;50.848;-1.216;2022-08-07T02:46:39;14.10;99.90
36446;DHT22;22472;50.848;-1.216;2022-08-07T02:49:07;14.10;99.90
36446;DHT22;22472;50.848;-1.216;2022-08-07T02:51:35;14.10;99.90
36446;DHT22;22472;50.848;-1.216;2022-08-07T02:54:04;14.10;99.90
36446;DHT22;22472;50.848;-1.216;2022-08-07T02:56:37;14.00;99.90
36446;DHT22;22472;50.848;-1.216;2022-08-07T02:59:09;13.90;99.90
36446;DHT22;22472;50.848;-1.216;2022-08-07T03:01:39;13.80;99.90
36446;DHT22;22472;50.848;-1.216;2022-08-07T03:04:09;13.80;99.90
36446;DHT22;22472;50.848;-1.216;2022-08-07T03:06:36;13.70;99.90
36446;DHT22;22472;50.848;-1.216;2022-08-07T03:09:05;13.60;99.90
36446;DHT22;22472;50.848;-1.216;2022-08-07T03:11:35;13.60;99.90
36446;DHT22;22472;50.848;-1.216;2022-08-07T03:14:03;13.60;99.90
36446;DHT22;22472;50.848;-1.216;2022-08-07T03:16:31;13.60;99.90
36446;DHT22;22472;50.848;-1.216;2022-08-07T03:19:00;13.50;99.90
36446;DHT22;22472;50.848;-1.216;2022-08-07T03:21:27;13.40;99.90
36446;DHT22;22472;50.848;-1.216;2022-08-07T03:23:56;13.40;99.90
36446;DHT22;22472;50.848;-1.216;2022-08-07T03:26:25;13.40;99.90
36446;DHT22;22472;50.848;-1.216;2022-08-07T03:28:54;13.40;99.90
36446;DHT22;22472;50.848;-1.216;2022-08-07T03:31:22;13.40;99.90
36446;DHT22;22472;50.848;-1.216;2022-08-07T03:33:54;13.30;99.90
36446;DHT22;22472;50.848;-1.216;2022-08-07T03:36:28;13.30;99.90
36446;DHT22;22472;50.848;-1.216;2022-08-07T03:39:04;13.30;99.90
36446;DHT22;22472;50.848;-1.216;2022-08-07T03:41:31;13.30;99.90
36446;DHT22;22472;50.848;-1.216;2022-08-07T03:44:00;13.30;99.90
36446;DHT22;22472;50.848;-1.216;2022-08-07T03:46:27;13.30;99.90
36446;DHT22;22472;50.848;-1.216;2022-08-07T03:48:55;13.30;99.90
36446;DHT22;22472;50.848;-1.216;2022-08-07T03:51:22;13.30;99.90
36446;DHT22;22472;50.848;-1.216;2022-08-07T03:53:50;13.30;99.90
36446;DHT22;22472;50.848;-1.216;2022-08-07T03:56:19;13.30;99.90
36446;DHT22;22472;50.848;-1.216;2022-08-07T03:58:47;13.30;99.90
36446;DHT22;22472;50.848;-1.216;2022-08-07T04:01:15;13.30;99.90
36446;DHT22;22472;50.848;-1.216;2022-08-07T04:03:43;13.30;99.90
36446;DHT22;22472;50.848;-1.216;2022-08-07T04:06:10;13.30;99.90
36446;DHT22;22472;50.848;-1.216;2022-08-07T04:08:39;13.30;99.90
36446;DHT22;22472;50.848;-1.216;2022-08-07T04:11:09;13.30;99.90
36446;DHT22;22472;50.848;-1.216;2022-08-07T04:13:37;13.20;99.90
36446;DHT22;22472;50.848;-1.216;2022-08-07T04:16:05;13.20;99.90
36446;DHT22;22472;50.848;-1.216;2022-08-07T04:18:33;13.10;99.90
36446;DHT22;22472;50.848;-1.216;2022-08-07T04:21:00;13.10;99.90
36446;DHT22;22472;50.848;-1.216;2022-08-07T04:23:27;13.20;99.90
36446;DHT22;22472;50.848;-1.216;2022-08-07T04:25:55;13.20;99.90
36446;DHT22;22472;50.848;-1.216;2022-08-07T04:28:23;13.20;99.90
36446;DHT22;22472;50.848;-1.216;2022-08-07T04:30:50;13.10;99.90
36446;DHT22;22472;50.848;-1.216;2022-08-07T04:33:18;13.10;99.90
36446;DHT22;22472;50.848;-1.216;2022-08-07T04:35:45;13.10;99.90
36446;DHT22;22472;50.848;-1.216;2022-08-07T04:38:13;13.10;99.90
36446;DHT22;22472;50.848;-1.216;2022-08-07T04:40:42;13.10;99.90
36446;DHT22;22472;50.848;-1.216;2022-08-07T04:43:09;13.10;99.90
36446;DHT22;22472;50.848;-1.216;2022-08-07T04:45:42;13.10;99.90
36446;DHT22;22472;50.848;-1.216;2022-08-07T04:48:18;13.10;99.90
36446;DHT22;22472;50.848;-1.216;2022-08-07T04:50:52;13.10;99.90
36446;DHT22;22472;50.848;-1.216;2022-08-07T04:53:25;13.00;99.90
36446;DHT22;22472;50.848;-1.216;2022-08-07T04:55:58;12.90;99.90
36446;DHT22;22472;50.848;-1.216;2022-08-07T04:58:34;12.90;99.90
36446;DHT22;22472;50.848;-1.216;2022-08-07T05:01:11;12.80;99.90
36446;DHT22;22472;50.848;-1.216;2022-08-07T05:03:45;12.80;99.90
36446;DHT22;22472;50.848;-1.216;2022-08-07T05:06:17;12.80;99.90
36446;DHT22;22472;50.848;-1.216;2022-08-07T05:08:47;12.90;99.90
36446;DHT22;22472;50.848;-1.216;2022-08-07T05:11:20;12.90;99.90
36446;DHT22;22472;50.848;-1.216;2022-08-07T05:13:52;12.90;99.90
36446;DHT22;22472;50.848;-1.216;2022-08-07T05:16:23;13.00;99.90
36446;DHT22;22472;50.848;-1.216;2022-08-07T05:18:55;13.00;99.90
36446;DHT22;22472;50.848;-1.216;2022-08-07T05:21:26;13.00;99.90
36446;DHT22;22472;50.848;-1.216;2022-08-07T05:23:56;13.00;99.90
36446;DHT22;22472;50.848;-1.216;2022-08-07T05:26:27;13.00;99.90
36446;DHT22;22472;50.848;-1.216;2022-08-07T05:28:57;13.00;99.90
36446;DHT22;22472;50.848;-1.216;2022-08-07T05:31:28;13.10;99.90
36446;DHT22;22472;50.848;-1.216;2022-08-07T05:33:55;13.20;99.90
36446;DHT22;22472;50.848;-1.216;2022-08-07T05:36:24;13.20;99.90
36446;DHT22;22472;50.848;-1.216;2022-08-07T05:38:52;13.20;99.90
36446;DHT22;22472;50.848;-1.216;2022-08-07T05:41:20;13.30;99.90
36446;DHT22;22472;50.848;-1.216;2022-08-07T05:43:49;13.40;99.90
36446;DHT22;22472;50.848;-1.216;2022-08-07T05:46:18;13.40;99.90
36446;DHT22;22472;50.848;-1.216;2022-08-07T05:48:47;13.50;99.90
36446;DHT22;22472;50.848;-1.216;2022-08-07T05:51:16;13.60;99.90
36446;DHT22;22472;50.848;-1.216;2022-08-07T05:53:43;13.70;99.90
36446;DHT22;22472;50.848;-1.216;2022-08-07T05:56:12;13.80;99.90
36446;DHT22;22472;50.848;-1.216;2022-08-07T05:58:40;13.80;99.90
36446;DHT22;22472;50.848;-1.216;2022-08-07T06:01:10;13.90;99.90
36446;DHT22;22472;50.848;-1.216;2022-08-07T06:03:38;14.00;99.90
36446;DHT22;22472;50.848;-1.216;2022-08-07T06:06:07;14.10;99.90
36446;DHT22;22472;50.848;-1.216;2022-08-07T06:08:34;14.10;99.90
36446;DHT22;22472;50.848;-1.216;2022-08-07T06:11:01;14.20;99.90
36446;DHT22;22472;50.848;-1.216;2022-08-07T06:13:28;14.30;99.90
36446;DHT22;22472;50.848;-1.216;2022-08-07T06:15:57;14.40;99.90
36446;DHT22;22472;50.848;-1.216;2022-08-07T06:18:24;14.40;99.90
36446;DHT22;22472;50.848;-1.216;2022-08-07T06:20:52;14.50;99.90
36446;DHT22;22472;50.848;-1.216;2022-08-07T06:23:21;14.60;99.90
36446;DHT22;22472;50.848;-1.216;2022-08-07T06:25:48;14.70;99.90
36446;DHT22;22472;50.848;-1.216;2022-08-07T06:28:15;14.80;99.90
36446;DHT22;22472;50.848;-1.216;2022-08-07T06:30:42;14.90;99.90
36446;DHT22;22472;50.848;-1.216;2022-08-07T06:33:09;15.00;99.90
36446;DHT22;22472;50.848;-1.216;2022-08-07T06:35:36;15.10;99.90
36446;DHT22;22472;50.848;-1.216;2022-08-07T06:38:04;15.10;99.90
36446;DHT22;22472;50.848;-1.216;2022-08-07T06:40:36;15.20;99.90
36446;DHT22;22472;50.848;-1.216;2022-08-07T06:43:07;15.30;99.90
36446;DHT22;22472;50.848;-1.216;2022-08-07T06:45:35;15.50;99.90
36446;DHT22;22472;50.848;-1.216;2022-08-07T06:48:02;15.60;99.90
36446;DHT22;22472;50.848;-1.216;2022-08-07T06:50:32;15.70;99.90
36446;DHT22;22472;50.848;-1.216;2022-08-07T06:53:00;15.90;99.90
36446;DHT22;22472;50.848;-1.216;2022-08-07T06:55:29;16.00;99.90
36446;DHT22;22472;50.848;-1.216;2022-08-07T06:58:01;16.20;99.90
36446;DHT22;22472;50.848;-1.216;2022-08-07T07:00:32;16.40;99.90
36446;DHT22;22472;50.848;-1.216;2022-08-07T07:03:01;16.50;99.90
36446;DHT22;22472;50.848;-1.216;2022-08-07T07:05:29;16.60;99.90
36446;DHT22;22472;50.848;-1.216;2022-08-07T07:07:56;16.80;99.90
36446;DHT22;22472;50.848;-1.216;2022-08-07T07:10:28;17.00;99.90
36446;DHT22;22472;50.848;-1.216;2022-08-07T07:13:01;17.20;99.90
36446;DHT22;22472;50.848;-1.216;2022-08-07T07:15:35;17.40;99.90
36446;DHT22;22472;50.848;-1.216;2022-08-07T07:18:08;17.60;99.90
36446;DHT22;22472;50.848;-1.216;2022-08-07T07:20:42;17.80;99.90
36446;DHT22;22472;50.848;-1.216;2022-08-07T07:23:11;18.00;99.90
36446;DHT22;22472;50.848;-1.216;2022-08-07T07:25:39;18.10;99.90
36446;DHT22;22472;50.848;-1.216;2022-08-07T07:28:12;18.40;99.90
36446;DHT22;22472;50.848;-1.216;2022-08-07T07:30:47;18.60;99.90
36446;DHT22;22472;50.848;-1.216;2022-08-07T07:33:15;18.90;99.90
36446;DHT22;22472;50.848;-1.216;2022-08-07T07:35:47;19.10;99.90
36446;DHT22;22472;50.848;-1.216;2022-08-07T07:38:14;19.30;99.90
36446;DHT22;22472;50.848;-1.216;2022-08-07T07:40:45;19.50;99.90
36446;DHT22;22472;50.848;-1.216;2022-08-07T07:43:14;19.70;99.90
36446;DHT22;22472;50.848;-1.216;2022-08-07T07:45:44;19.90;99.90
36446;DHT22;22472;50.848;-1.216;2022-08-07T07:48:15;20.10;99.90
36446;DHT22;22472;50.848;-1.216;2022-08-07T07:50:45;20.30;99.90
36446;DHT22;22472;50.848;-1.216;2022-08-07T07:53:13;20.50;99.90
36446;DHT22;22472;50.848;-1.216;2022-08-07T07:55:41;20.70;99.90
36446;DHT22;22472;50.848;-1.216;2022-08-07T07:58:08;20.90;99.90
36446;DHT22;22472;50.848;-1.216;2022-08-07T08:00:37;21.10;99.90
36446;DHT22;22472;50.848;-1.216;2022-08-07T08:03:07;21.30;99.90
36446;DHT22;22472;50.848;-1.216;2022-08-07T08:05:37;21.50;99.90
36446;DHT22;22472;50.848;-1.216;2022-08-07T08:08:04;21.70;99.90
36446;DHT22;22472;50.848;-1.216;2022-08-07T08:10:32;21.90;99.90
36446;DHT22;22472;50.848;-1.216;2022-08-07T08:13:00;22.20;99.90
36446;DHT22;22472;50.848;-1.216;2022-08-07T08:15:32;22.40;99.90
36446;DHT22;22472;50.848;-1.216;2022-08-07T08:18:02;22.60;99.90
36446;DHT22;22472;50.848;-1.216;2022-08-07T08:20:33;22.90;99.90
36446;DHT22;22472;50.848;-1.216;2022-08-07T08:23:03;23.10;99.90
36446;DHT22;22472;50.848;-1.216;2022-08-07T08:25:50;23.20;99.90
36446;DHT22;22472;50.848;-1.216;2022-08-07T08:28:49;23.60;99.90
36446;DHT22;22472;50.848;-1.216;2022-08-07T08:31:22;24.00;99.90
36446;DHT22;22472;50.848;-1.216;2022-08-07T08:33:52;24.20;99.90
36446;DHT22;22472;50.848;-1.216;2022-08-07T08:36:23;24.50;99.90
36446;DHT22;22472;50.848;-1.216;2022-08-07T08:38:53;24.50;99.90
36446;DHT22;22472;50.848;-1.216;2022-08-07T08:41:26;24.80;99.90
36446;DHT22;22472;50.848;-1.216;2022-08-07T08:44:01;25.10;99.90
36446;DHT22;22472;50.848;-1.216;2022-08-07T08:46:37;25.50;99.90
36446;DHT22;22472;50.848;-1.216;2022-08-07T08:49:17;25.80;99.90
36446;DHT22;22472;50.848;-1.216;2022-08-07T08:51:54;26.00;99.90
36446;DHT22;22472;50.848;-1.216;2022-08-07T08:54:27;26.30;99.90
36446;DHT22;22472;50.848;-1.216;2022-08-07T08:56:58;26.60;99.90
36446;DHT22;22472;50.848;-1.216;2022-08-07T08:59:32;26.90;99.90
36446;DHT22;22472;50.848;-1.216;2022-08-07T09:02:08;26.90;99.90
36446;DHT22;22472;50.848;-1.216;2022-08-07T09:04:46;27.00;99.90
36446;DHT22;22472;50.848;-1.216;2022-08-07T09:07:18;27.30;99.90
36446;DHT22;22472;50.848;-1.216;2022-08-07T09:09:55;27.00;99.90
36446;DHT22;22472;50.848;-1.216;2022-08-07T09:12:39;27.00;99.90
36446;DHT22;22472;50.848;-1.216;2022-08-07T09:15:19;27.10;99.90
36446;DHT22;22472;50.848;-1.216;2022-08-07T09:18:05;27.60;99.90
36446;DHT22;22472;50.848;-1.216;2022-08-07T09:20:47;27.60;99.90
36446;DHT22;22472;50.848;-1.216;2022-08-07T09:23:30;27.80;99.90
36446;DHT22;22472;50.848;-1.216;2022-08-07T09:26:10;27.90;99.90
36446;DHT22;22472;50.848;-1.216;2022-08-07T09:28:42;28.30;99.90
36446;DHT22;22472;50.848;-1.216;2022-08-07T09:31:22;28.80;99.90
36446;DHT22;22472;50.848;-1.216;2022-08-07T09:33:58;29.00;99.90
36446;DHT22;22472;50.848;-1.216;2022-08-07T09:36:35;29.20;99.90
36446;DHT22;22472;50.848;-1.216;2022-08-07T09:39:19;29.70;99.90
36446;DHT22;22472;50.848;-1.216;2022-08-07T09:41:57;29.60;99.90
36446;DHT22;22472;50.848;-1.216;2022-08-07T09:44:40;29.80;99.80
36446;DHT22;22472;50.848;-1.216;2022-08-07T09:47:18;30.20;99.80
36446;DHT22;22472;50.848;-1.216;2022-08-07T09:49:54;30.40;99.60
36446;DHT22;22472;50.848;-1.216;2022-08-07T09:52:28;30.60;99.10
36446;DHT22;22472;50.848;-1.216;2022-08-07T09:55:00;30.70;98.80
36446;DHT22;22472;50.848;-1.216;2022-08-07T10:00:30;31.20;97.90
36446;DHT22;22472;50.848;-1.216;2022-08-07T10:06:21;31.40;97.40
36446;DHT22;22472;50.848;-1.216;2022-08-07T10:12:11;31.50;96.00
36446;DHT22;22472;50.848;-1.216;2022-08-07T10:15:17;31.70;95.70
36446;DHT22;22472;50.848;-1.216;2022-08-07T10:18:04;32.00;95.40
36446;DHT22;22472;50.848;-1.216;2022-08-07T10:20:41;32.60;94.60
36446;DHT22;22472;50.848;-1.216;2022-08-07T10:26:29;31.80;93.00
36446;DHT22;22472;50.848;-1.216;2022-08-07T10:29:11;31.80;92.70
36446;DHT22;22472;50.848;-1.216;2022-08-07T10:31:59;32.30;93.00
36446;DHT22;22472;50.848;-1.216;2022-08-07T10:34:45;32.40;92.90
36446;DHT22;22472;50.848;-1.216;2022-08-07T10:37:28;31.90;93.20
36446;DHT22;22472;50.848;-1.216;2022-08-07T10:40:07;32.20;93.10
36446;DHT22;22472;50.848;-1.216;2022-08-07T10:42:39;32.50;93.00
36446;DHT22;22472;50.848;-1.216;2022-08-07T10:45:16;32.50;92.80
36446;DHT22;22472;50.848;-1.216;2022-08-07T10:47:48;32.70;92.40
36446;DHT22;22472;50.848;-1.216;2022-08-07T10:50:21;33.00;92.30
36446;DHT22;22472;50.848;-1.216;2022-08-07T10:52:58;33.20;92.00
36446;DHT22;22472;50.848;-1.216;2022-08-07T10:55:30;33.00;92.00
36446;DHT22;22472;50.848;-1.216;2022-08-07T10:58:16;33.10;91.60
36446;DHT22;22472;50.848;-1.216;2022-08-07T11:01:08;33.10;86.10
36446;DHT22;22472;50.848;-1.216;2022-08-07T11:03:43;32.90;86.80
36446;DHT22;22472;50.848;-1.216;2022-08-07T11:06:18;32.80;86.30
36446;DHT22;22472;50.848;-1.216;2022-08-07T11:08:52;32.90;86.90
36446;DHT22;22472;50.848;-1.216;2022-08-07T11:11:23;33.20;86.80
36446;DHT22;22472;50.848;-1.216;2022-08-07T11:13:55;33.30;83.80
36446;DHT22;22472;50.848;-1.216;2022-08-07T11:16:27;33.20;84.10
36446;DHT22;22472;50.848;-1.216;2022-08-07T11:19:00;33.50;79.40
36446;DHT22;22472;50.848;-1.216;2022-08-07T11:21:41;33.60;78.70
36446;DHT22;22472;50.848;-1.216;2022-08-07T11:24:17;33.70;79.20
36446;DHT22;22472;50.848;-1.216;2022-08-07T11:26:50;33.80;75.60
36446;DHT22;22472;50.848;-1.216;2022-08-07T11:29:26;33.90;76.50
36446;DHT22;22472;50.848;-1.216;2022-08-07T11:32:03;33.90;76.20
36446;DHT22;22472;50.848;-1.216;2022-08-07T11:34:40;33.50;76.30
36446;DHT22;22472;50.848;-1.216;2022-08-07T11:37:18;33.50;76.40
36446;DHT22;22472;50.848;-1.216;2022-08-07T11:39:57;33.70;76.70
36446;DHT22;22472;50.848;-1.216;2022-08-07T11:42:38;33.30;75.80
36446;DHT22;22472;50.848;-1.216;2022-08-07T11:45:17;32.90;76.00
36446;DHT22;22472;50.848;-1.216;2022-08-07T11:48:03;33.00;78.00
36446;DHT22;22472;50.848;-1.216;2022-08-07T11:50:45;33.00;78.50
36446;DHT22;22472;50.848;-1.216;2022-08-07T11:53:21;32.90;78.80
36446;DHT22;22472;50.848;-1.216;2022-08-07T11:56:00;33.30;79.00
36446;DHT22;22472;50.848;-1.216;2022-08-07T11:58:37;33.60;76.10
36446;DHT22;22472;50.848;-1.216;2022-08-07T12:01:16;33.60;76.50
36446;DHT22;22472;50.848;-1.216;2022-08-07T12:06:48;33.50;78.80
36446;DHT22;22472;50.848;-1.216;2022-08-07T12:09:21;33.90;79.00
36446;DHT22;22472;50.848;-1.216;2022-08-07T12:11:56;34.00;77.80
36446;DHT22;22472;50.848;-1.216;2022-08-07T12:14:26;34.20;77.40
36446;DHT22;22472;50.848;-1.216;2022-08-07T12:16:59;34.30;76.20
36446;DHT22;22472;50.848;-1.216;2022-08-07T12:19:43;34.40;75.50
36446;DHT22;22472;50.848;-1.216;2022-08-07T12:22:18;34.50;75.80
36446;DHT22;22472;50.848;-1.216;2022-08-07T12:24:54;34.80;76.00
36446;DHT22;22472;50.848;-1.216;2022-08-07T12:27:43;35.10;76.10
36446;DHT22;22472;50.848;-1.216;2022-08-07T12:30:12;34.90;76.20
36446;DHT22;22472;50.848;-1.216;2022-08-07T12:32:44;35.10;76.60
36446;DHT22;22472;50.848;-1.216;2022-08-07T12:35:16;34.70;76.50
36446;DHT22;22472;50.848;-1.216;2022-08-07T12:37:47;34.60;76.30
36446;DHT22;22472;50.848;-1.216;2022-08-07T12:40:18;34.90;75.80
36446;DHT22;22472;50.848;-1.216;2022-08-07T12:42:47;35.00;75.50
36446;DHT22;22472;50.848;-1.216;2022-08-07T12:45:20;34.80;74.30
36446;DHT22;22472;50.848;-1.216;2022-08-07T12:47:53;34.80;74.20
36446;DHT22;22472;50.848;-1.216;2022-08-07T12:50:30;34.60;75.40
36446;DHT22;22472;50.848;-1.216;2022-08-07T12:53:06;34.80;76.00
36446;DHT22;22472;50.848;-1.216;2022-08-07T12:55:40;34.50;79.40
36446;DHT22;22472;50.848;-1.216;2022-08-07T12:58:12;34.00;83.00
36446;DHT22;22472;50.848;-1.216;2022-08-07T13:00:49;34.40;83.50
36446;DHT22;22472;50.848;-1.216;2022-08-07T13:03:30;34.50;80.10
36446;DHT22;22472;50.848;-1.216;2022-08-07T13:06:11;34.10;80.00
36446;DHT22;22472;50.848;-1.216;2022-08-07T13:08:50;34.20;79.80
36446;DHT22;22472;50.848;-1.216;2022-08-07T13:11:33;34.30;79.50
36446;DHT22;22472;50.848;-1.216;2022-08-07T13:14:09;33.80;79.60
36446;DHT22;22472;50.848;-1.216;2022-08-07T13:16:47;33.90;79.30
36446;DHT22;22472;50.848;-1.216;2022-08-07T13:19:27;34.30;79.00
36446;DHT22;22472;50.848;-1.216;2022-08-07T13:22:01;34.00;78.20
36446;DHT22;22472;50.848;-1.216;2022-08-07T13:24:43;33.20;78.20
36446;DHT22;22472;50.848;-1.216;2022-08-07T13:27:13;33.30;77.80
36446;DHT22;22472;50.848;-1.216;2022-08-07T13:29:48;33.30;78.00
36446;DHT22;22472;50.848;-1.216;2022-08-07T13:32:22;33.50;78.00
36446;DHT22;22472;50.848;-1.216;2022-08-07T13:34:56;33.20;78.60
36446;DHT22;22472;50.848;-1.216;2022-08-07T13:37:32;33.60;78.40
36446;DHT22;22472;50.848;-1.216;2022-08-07T13:40:08;33.00;78.50
36446;DHT22;22472;50.848;-1.216;2022-08-07T13:42:39;32.60;77.90
36446;DHT22;22472;50.848;-1.216;2022-08-07T13:45:07;32.90;78.60
36446;DHT22;22472;50.848;-1.216;2022-08-07T13:47:36;33.10;78.90
36446;DHT22;22472;50.848;-1.216;2022-08-07T13:50:07;33.10;79.20
36446;DHT22;22472;50.848;-1.216;2022-08-07T13:52:39;32.70;79.80
36446;DHT22;22472;50.848;-1.216;2022-08-07T13:55:12;32.80;80.20
36446;DHT22;22472;50.848;-1.216;2022-08-07T13:57:42;32.80;80.00
36446;DHT22;22472;50.848;-1.216;2022-08-07T14:00:11;32.70;80.20
36446;DHT22;22472;50.848;-1.216;2022-08-07T14:02:39;32.50;80.30
36446;DHT22;22472;50.848;-1.216;2022-08-07T14:05:08;32.60;80.80
36446;DHT22;22472;50.848;-1.216;2022-08-07T14:07:41;33.10;81.00
36446;DHT22;22472;50.848;-1.216;2022-08-07T14:10:10;33.00;81.00
36446;DHT22;22472;50.848;-1.216;2022-08-07T14:12:47;33.00;81.20
36446;DHT22;22472;50.848;-1.216;2022-08-07T14:15:19;32.50;81.00
36446;DHT22;22472;50.848;-1.216;2022-08-07T14:17:53;32.30;81.20
36446;DHT22;22472;50.848;-1.216;2022-08-07T14:20:23;32.00;81.20
36446;DHT22;22472;50.848;-1.216;2022-08-07T14:22:52;31.50;81.20
36446;DHT22;22472;50.848;-1.216;2022-08-07T14:25:29;31.40;81.60
36446;DHT22;22472;50.848;-1.216;2022-08-07T14:28:01;31.60;82.80
36446;DHT22;22472;50.848;-1.216;2022-08-07T14:30:30;32.00;82.60
36446;DHT22;22472;50.848;-1.216;2022-08-07T14:33:00;32.30;82.70
36446;DHT22;22472;50.848;-1.216;2022-08-07T14:35:29;32.20;82.60
36446;DHT22;22472;50.848;-1.216;2022-08-07T14:37:59;32.20;82.40
36446;DHT22;22472;50.848;-1.216;2022-08-07T14:40:28;32.60;81.60
36446;DHT22;22472;50.848;-1.216;2022-08-07T14:42:58;32.00;81.40
36446;DHT22;22472;50.848;-1.216;2022-08-07T14:45:29;32.20;81.20
36446;DHT22;22472;50.848;-1.216;2022-08-07T14:47:59;32.60;81.20
36446;DHT22;22472;50.848;-1.216;2022-08-07T14:50:28;32.50;81.10
36446;DHT22;22472;50.848;-1.216;2022-08-07T14:52:55;32.10;80.70
36446;DHT22;22472;50.848;-1.216;2022-08-07T14:55:31;32.20;80.90
36446;DHT22;22472;50.848;-1.216;2022-08-07T14:57:58;32.30;80.70
36446;DHT22;22472;50.848;-1.216;2022-08-07T15:00:29;32.20;80.40
36446;DHT22;22472;50.848;-1.216;2022-08-07T15:02:57;31.30;80.40
36446;DHT22;22472;50.848;-1.216;2022-08-07T15:05:26;31.20;80.50
36446;DHT22;22472;50.848;-1.216;2022-08-07T15:07:55;31.20;81.30
36446;DHT22;22472;50.848;-1.216;2022-08-07T15:10:24;30.70;81.60
36446;DHT22;22472;50.848;-1.216;2022-08-07T15:12:55;30.30;82.70
36446;DHT22;22472;50.848;-1.216;2022-08-07T15:15:28;30.80;83.70
36446;DHT22;22472;50.848;-1.216;2022-08-07T15:18:06;30.90;83.50
36446;DHT22;22472;50.848;-1.216;2022-08-07T15:20:36;30.40;83.50
36446;DHT22;22472;50.848;-1.216;2022-08-07T15:23:08;30.60;83.50
36446;DHT22;22472;50.848;-1.216;2022-08-07T15:25:39;30.10;83.00
36446;DHT22;22472;50.848;-1.216;2022-08-07T15:28:15;29.90;82.90
36446;DHT22;22472;50.848;-1.216;2022-08-07T15:30:46;29.80;82.60
36446;DHT22;22472;50.848;-1.216;2022-08-07T15:33:17;29.60;83.00
36446;DHT22;22472;50.848;-1.216;2022-08-07T15:35:47;29.70;83.30
36446;DHT22;22472;50.848;-1.216;2022-08-07T15:38:16;29.80;83.40
36446;DHT22;22472;50.848;-1.216;2022-08-07T15:40:46;29.70;83.80
36446;DHT22;22472;50.848;-1.216;2022-08-07T15:43:18;29.30;83.90
36446;DHT22;22472;50.848;-1.216;2022-08-07T15:45:47;29.10;84.10
36446;DHT22;22472;50.848;-1.216;2022-08-07T15:48:22;29.30;84.30
36446;DHT22;22472;50.848;-1.216;2022-08-07T15:50:52;29.00;84.80
36446;DHT22;22472;50.848;-1.216;2022-08-07T15:53:25;29.00;85.10
36446;DHT22;22472;50.848;-1.216;2022-08-07T15:55:55;28.60;86.10
36446;DHT22;22472;50.848;-1.216;2022-08-07T15:58:34;29.00;86.40